• Join FlightAware (Why Join?)
  • Login
  • US Flag GB Flag 
11:41 EDT


 

Airport Tracker/Info


-or-


 

Live Flight TrackerFlight Track Log ✈ N27XP ✈ 20-Dec-2013 ✈ KSOP - KTEB

Flight Track Log - Related Links

Times and Time Zones

All times are in EST time to prevent confusion due to time zone crossing. See the N27XP flight status page for this flight to view local times or setup timezone preferences in your user account.

Time Position Orientation Groundspeed Altitude Reporting Facility
EST Latitude Longitude Course Direction KTS MPH feet Rate Location/Type
12:45 35.3467 -79.3939 31° Northeast 310 357 7,400  Level Washington Center
12:46 35.3856 -79.2811 67° East 311 358 9,600 2,280 Climbing Washington Center
12:47 35.4181 -79.1731 70° East 324 373 12,000 1,920 Climbing Washington Center
12:48 35.4786 -79.1017 44° Northeast 337 388 13,600 1,620 Climbing Washington Center
12:49 35.5658 -79.0469 27° Northeast 337 388 15,300 1,620 Climbing Washington Center
12:50 35.7535 -78.9400 31° Northeast  Level Estimated
12:50 35.6614 -78.9922 25° Northeast 349 402 16,800  Level Washington Center
12:51 35.7569 -78.9322 27° Northeast 370 426 18,100 1,380 Climbing Washington Center
12:52 35.8567 -78.8722 26° Northeast 382 440 19,700 1,620 Climbing Washington Center
12:53 35.9564 -78.8122 26° Northeast 390 449 21,300 1,560 Climbing Washington Center
12:54 36.0558 -78.7522 26° Northeast 390 449 22,800 1,440 Climbing Washington Center
12:55 36.1536 -78.6919 26° Northeast 390 449 24,300 1,440 Climbing Washington Center
12:56 36.2489 -78.6311 27° Northeast 385 443 25,800 1,260 Climbing Washington Center
12:57 36.3464 -78.5731 26° Northeast 385 443 26,900 1,080 Climbing Washington Center
12:58 36.4481 -78.5097 27° Northeast 390 449 28,000 1,020 Climbing Washington Center
12:59 36.5456 -78.4489 27° Northeast 390 449 29,000 960 Climbing Washington Center
13:00 36.6472 -78.3878 26° Northeast 390 449 30,000 1,020 Climbing Washington Center
13:01 36.7572 -78.3167 27° Northeast 390 449 31,100 1,020 Climbing Washington Center
13:02 36.8567 -78.2553 26° Northeast 390 449 32,100 780 Climbing Washington Center
13:03 36.9625 -78.1886 27° Northeast 401 461 32,800 420 Climbing Washington Center
13:04 37.0683 -78.1219 27° Northeast 410 472 33,000 60 Climbing Washington Center
13:05 37.1803 -78.0528 26° Northeast 421 484 33,000  Level Washington Center
13:06 37.2944 -77.9781 28° Northeast 437 503 33,000  Level Washington Center
13:07 37.4128 -77.9033 27° Northeast 453 521 33,000  Level Washington Center
13:08 37.5311 -77.8231 28° Northeast 466 536 33,000  Level Washington Center
13:09 37.6456 -77.7214 35° Northeast 488 562 33,000  Level Washington Center
13:10 37.7600 -77.6197 35° Northeast 493 567 33,000  Level Washington Center
13:11 37.8742 -77.5147 36° Northeast 505 581 33,000  Level Washington Center
13:12 37.9883 -77.4097 36° Northeast 505 581 33,000  Level Washington Center
13:13 38.0900 -77.3172 36° Northeast 505 581 33,000 -120 Level Washington Center
13:14 38.2039 -77.2142 35° Northeast 505 581 32,800 -660 Descending Washington Center
13:15 38.3158 -77.1108 36° Northeast 505 581 31,700 -1,140 Descending Washington Center
13:16 38.4381 -76.9967 36° Northeast 500 575 30,500 -1,140 Descending Washington Center
13:17 38.5497 -76.8925 36° Northeast 500 575 29,500 -1,020 Descending Washington Center
13:18 38.6636 -76.7881 36° Northeast 500 575 28,500 -1,020 Descending Washington Center
13:19 38.7708 -76.6700 41° Northeast 500 575 27,500 -1,020 Descending Washington Center
13:20 38.8761 -76.5489 42° Northeast 500 575 26,500 -1,020 Descending Washington Center
13:21 38.9792 -76.4275 42° Northeast 500 575 25,500 -1,080 Descending Washington Center
13:22 39.0842 -76.3083 41° Northeast 500 575 24,400 -780 Descending Washington Center
13:23 39.1869 -76.1886 42° Northeast 500 575 24,000 -240 Descending Washington Center
13:24 39.2897 -76.0742 41° Northeast 494 568 24,000 -180 Level Washington Center
13:25 39.3964 -75.9728 36° Northeast 481 554 23,700 -1,620 Descending Washington Center
13:26 39.5050 -75.8767 34° Northeast 476 548 20,800 -2,880 Descending Washington Center
13:28 39.6667 -75.7167 37° Northeast 450 518 16,400 -2,820 Descending Philadelphia TRACON
13:29 39.7667 -75.6333 33° Northeast 441 507 13,900 -1,920 Descending Philadelphia TRACON
13:30 39.8500 -75.5500 38° Northeast 428 493 13,000 -480 Descending Philadelphia TRACON
13:31 39.9500 -75.4500 37° Northeast 435 501 13,000  Level Philadelphia TRACON
13:32 40.0500 -75.3667 33° Northeast 442 509 13,000  Level Philadelphia TRACON
13:33 40.1333 -75.2833 37° Northeast 431 496 13,000 -1,380 Level Philadelphia TRACON
13:35 40.3500 -75.0833 35° Northeast 364 419 8,700 -1,860 Descending New York TRACON
13:36 40.4000 -75.0000 52° Northeast 319 367 6,900 -1,740 Descending New York TRACON
13:37 40.4667 -74.9167 44° Northeast 313 360 5,300 -1,500 Descending New York TRACON
13:38 40.5167 -74.8333 52° Northeast 306 352 4,000 -660 Descending New York TRACON
13:39 40.5833 -74.7333 49° Northeast 298 343 4,000  Level New York TRACON
13:40 40.6500 -74.6833 30° Northeast 293 337 4,000  Level New York TRACON
13:41 40.7167 -74.6167 37° Northeast 300 345 4,000 -240 Level New York TRACON
13:42 40.8000 -74.5333 37° Northeast 313 360 3,600 -480 Descending New York TRACON
13:43 40.8500 -74.4500 52° Northeast 311 358 3,000 -300 Descending New York TRACON
13:44 40.9000 -74.3667 52° Northeast 297 342 3,000  Level New York TRACON
13:45 40.9500 -74.2833 52° Northeast 294 338 3,000  Level New York TRACON
13:46 40.9833 -74.1833 66° East 266 306 3,000 -420 Level New York TRACON
13:47 40.9833 -74.1167 90° East 221 254 2,200 -600 Descending New York TRACON
13:48 40.9500 -74.0667 131° Southeast 196 226 1,900 -600 Descending New York TRACON
13:49 40.9000 -74.0500 166° South 146 168 1,000 -840 Descending New York TRACON